Terminal Aerodrome Forecast
Issued by NWS Boston, MA

Home | Current Version | Previous Version | Text Only | Print | Product List | Glossary On
Versions: 1 2 3 4 5 6 7 8 9 10 11 12 13 14 15 16 17 18 19 20 21
000
FTUS41 KBOX 242320
TAFPVD
TAF
KPVD 242320Z 2500/2524 34005KT P6SM SKC
     FM251200 34009KT P6SM SKC
     FM251800 34009KT P6SM FEW050
     FM252300 33008KT P6SM SKC=

USA.gov is the U.S. government's official web portal to all federal, state and local government web resources and services.